createdAt,value
2022-12-07T00:00:06.707Z,5.83
2022-12-07T00:01:06.711Z,5.83
2022-12-07T00:02:06.788Z,5.84
2022-12-07T00:03:06.832Z,5.91
2022-12-07T00:04:06.711Z,5.92
2022-12-07T00:05:06.721Z,5.95
2022-12-07T00:06:06.638Z,5.98
2022-12-07T00:07:06.836Z,6.02
2022-12-07T00:08:06.765Z,6.10
2022-12-07T00:09:06.742Z,6.16
2022-12-07T00:10:06.575Z,6.19
2022-12-07T00:11:06.564Z,6.20
2022-12-07T00:12:06.668Z,6.15
2022-12-07T00:13:06.560Z,6.10
2022-12-07T00:14:06.551Z,5.98
2022-12-07T00:15:06.546Z,5.91
2022-12-07T00:16:06.558Z,5.84
2022-12-07T00:17:06.509Z,5.80
2022-12-07T00:18:06.514Z,5.77
2022-12-07T00:19:06.474Z,5.74
2022-12-07T00:20:06.498Z,5.73
2022-12-07T00:21:06.464Z,5.73
2022-12-07T00:22:06.427Z,5.72
2022-12-07T00:23:06.441Z,5.73
2022-12-07T00:24:06.430Z,5.72
2022-12-07T00:25:06.445Z,5.72
2022-12-07T00:26:06.411Z,5.74
2022-12-07T00:27:06.386Z,5.79
2022-12-07T00:28:06.431Z,5.81
2022-12-07T00:29:06.484Z,5.84
2022-12-07T00:30:06.414Z,5.83
2022-12-07T00:31:06.391Z,5.83
2022-12-07T00:32:06.421Z,5.81
2022-12-07T00:33:06.462Z,5.80
2022-12-07T00:34:06.389Z,5.81
2022-12-07T00:35:06.392Z,5.87
2022-12-07T00:36:06.310Z,5.91
2022-12-07T00:37:06.636Z,5.95
2022-12-07T00:38:06.323Z,6.01
2022-12-07T00:39:06.356Z,6.05
2022-12-07T00:40:06.280Z,6.06
2022-12-07T00:41:06.288Z,6.10
2022-12-07T00:42:06.293Z,6.13
2022-12-07T00:43:06.265Z,6.13
2022-12-07T00:44:06.286Z,6.13
2022-12-07T00:45:06.241Z,6.13
2022-12-07T00:46:06.234Z,6.12
2022-12-07T00:47:07.069Z,6.10
2022-12-07T00:48:06.196Z,6.10
2022-12-07T00:49:06.202Z,6.09
2022-12-07T00:50:06.443Z,6.10
2022-12-07T00:51:06.115Z,6.13
2022-12-07T00:52:06.123Z,6.15
2022-12-07T00:53:06.090Z,6.15
2022-12-07T00:54:06.073Z,6.16
2022-12-07T00:55:06.070Z,6.19
2022-12-07T00:56:06.060Z,6.26
2022-12-07T00:57:06.083Z,6.26
2022-12-07T00:58:06.026Z,6.22
2022-12-07T00:59:06.225Z,6.17
2022-12-07T01:00:06.019Z,6.10
2022-12-07T01:01:06.035Z,6.05
2022-12-07T01:02:05.977Z,6.01
2022-12-07T01:03:06.052Z,5.97
2022-12-07T01:04:05.955Z,5.95
2022-12-07T01:05:05.972Z,5.92
2022-12-07T01:06:05.935Z,5.92
2022-12-07T01:07:05.983Z,5.94
2022-12-07T01:08:06.081Z,5.95
2022-12-07T01:09:05.937Z,5.95
2022-12-07T01:10:05.882Z,5.97
2022-12-07T01:11:05.899Z,5.99
2022-12-07T01:12:05.899Z,6.02
2022-12-07T01:13:05.865Z,6.02
2022-12-07T01:14:05.860Z,6.09
2022-12-07T01:15:05.880Z,6.13
2022-12-07T01:16:05.822Z,6.13
2022-12-07T01:17:05.918Z,6.10
2022-12-07T01:18:05.839Z,6.10
2022-12-07T01:19:05.924Z,6.10
2022-12-07T01:20:05.876Z,6.07
2022-12-07T01:21:05.797Z,6.09
2022-12-07T01:22:05.783Z,6.09
2022-12-07T01:23:05.813Z,6.09
2022-12-07T01:24:05.752Z,6.10
2022-12-07T01:25:05.765Z,6.13
2022-12-07T01:26:05.727Z,6.13
2022-12-07T01:27:05.711Z,6.16
2022-12-07T01:28:05.721Z,6.15
2022-12-07T01:29:05.707Z,6.13
2022-12-07T01:30:05.669Z,6.13
2022-12-07T01:31:05.701Z,6.12
2022-12-07T01:32:05.662Z,6.12
2022-12-07T01:33:05.680Z,6.09
2022-12-07T01:34:05.656Z,6.10
2022-12-07T01:35:05.687Z,6.09
2022-12-07T01:36:05.645Z,6.09
2022-12-07T01:37:05.633Z,6.07
2022-12-07T01:38:05.576Z,6.07
2022-12-07T01:39:05.619Z,6.10
2022-12-07T01:40:05.562Z,6.13
2022-12-07T01:41:05.557Z,6.16
2022-12-07T01:42:05.567Z,6.19
2022-12-07T01:43:05.539Z,6.22
2022-12-07T01:44:05.509Z,6.26
2022-12-07T01:45:05.532Z,6.31
2022-12-07T01:46:05.568Z,6.36
2022-12-07T01:47:05.546Z,6.39
2022-12-07T01:48:05.496Z,6.43
2022-12-07T01:49:05.466Z,6.43
2022-12-07T01:50:05.443Z,6.46
2022-12-07T01:51:05.449Z,6.44
2022-12-07T01:52:05.460Z,6.47
2022-12-07T01:53:05.425Z,6.47
2022-12-07T01:54:05.432Z,6.50
2022-12-07T01:55:05.416Z,6.53
2022-12-07T01:56:05.370Z,6.52
2022-12-07T01:57:05.387Z,6.49
2022-12-07T01:58:05.341Z,6.46
2022-12-07T01:59:05.394Z,6.39
2022-12-07T02:00:05.602Z,6.38
2022-12-07T02:01:05.358Z,6.35
2022-12-07T02:02:05.376Z,6.32
2022-12-07T02:03:05.359Z,6.29
2022-12-07T02:04:05.325Z,6.26
2022-12-07T02:05:05.278Z,6.22
2022-12-07T02:06:05.296Z,6.17
2022-12-07T02:07:05.268Z,6.16
2022-12-07T02:08:05.299Z,6.15
2022-12-07T02:09:05.277Z,6.15
2022-12-07T02:10:05.212Z,6.15
2022-12-07T02:11:05.216Z,6.16
2022-12-07T02:12:05.212Z,6.20
2022-12-07T02:13:05.188Z,6.25
2022-12-07T02:14:05.185Z,6.29
2022-12-07T02:15:05.195Z,6.29
2022-12-07T02:16:05.238Z,6.34
2022-12-07T02:17:05.128Z,6.35
2022-12-07T02:18:05.140Z,6.39
2022-12-07T02:19:05.102Z,6.43
2022-12-07T02:20:05.185Z,6.46
2022-12-07T02:21:05.125Z,6.34
2022-12-07T02:22:05.129Z,6.12
2022-12-07T02:23:05.071Z,5.97
2022-12-07T02:24:05.121Z,5.88
2022-12-07T02:25:05.044Z,5.88
2022-12-07T02:26:05.080Z,5.91
2022-12-07T02:27:05.058Z,5.91
2022-12-07T02:28:05.027Z,5.92
2022-12-07T02:29:04.998Z,5.94
2022-12-07T02:30:05.395Z,5.95
2022-12-07T02:31:05.082Z,5.94
2022-12-07T02:32:05.018Z,5.90
2022-12-07T02:33:04.968Z,5.88
2022-12-07T02:34:04.972Z,5.87
2022-12-07T02:35:04.937Z,5.83
2022-12-07T02:36:04.937Z,5.83
2022-12-07T02:37:04.938Z,5.81
2022-12-07T02:38:04.912Z,5.79
2022-12-07T02:39:04.912Z,5.77
2022-12-07T02:40:05.104Z,5.76
2022-12-07T02:41:04.865Z,5.74
2022-12-07T02:42:04.907Z,5.76
2022-12-07T02:43:04.890Z,5.76
2022-12-07T02:44:04.850Z,5.76
2022-12-07T02:45:04.874Z,5.79
2022-12-07T02:46:04.906Z,5.79
2022-12-07T02:47:04.921Z,5.80
2022-12-07T02:48:04.815Z,5.80
2022-12-07T02:49:04.779Z,5.80
2022-12-07T02:50:05.018Z,5.80
2022-12-07T02:51:04.757Z,5.81
2022-12-07T02:52:04.772Z,5.81
2022-12-07T02:53:04.779Z,5.84
2022-12-07T02:54:04.737Z,5.87
2022-12-07T02:55:04.755Z,5.90
2022-12-07T02:56:04.719Z,5.91
2022-12-07T02:57:04.687Z,5.90
2022-12-07T02:58:04.758Z,5.84
2022-12-07T02:59:04.702Z,5.76
2022-12-07T03:00:05.028Z,5.67
2022-12-07T03:01:04.643Z,5.59
2022-12-07T03:02:04.696Z,5.55
2022-12-07T03:03:04.732Z,5.52
2022-12-07T03:04:04.626Z,5.54
2022-12-07T03:05:04.637Z,5.47
2022-12-07T03:06:04.607Z,5.41
2022-12-07T03:07:04.597Z,5.33
2022-12-07T03:08:04.657Z,5.26
2022-12-07T03:09:04.553Z,5.22
2022-12-07T03:10:04.884Z,5.18
2022-12-07T03:11:04.575Z,5.12
2022-12-07T03:12:04.535Z,5.10
2022-12-07T03:13:04.518Z,5.08
2022-12-07T03:14:04.555Z,5.04
2022-12-07T03:15:04.488Z,5.02
2022-12-07T03:16:04.595Z,5.00
2022-12-07T03:17:04.462Z,5.00
2022-12-07T03:18:04.471Z,4.98
2022-12-07T03:19:04.461Z,4.98
2022-12-07T03:20:04.816Z,5.02
2022-12-07T03:21:04.445Z,5.04
2022-12-07T03:22:04.432Z,5.05
2022-12-07T03:23:04.393Z,5.08
2022-12-07T03:24:04.407Z,5.12
2022-12-07T03:25:04.380Z,5.13
2022-12-07T03:26:04.420Z,5.15
2022-12-07T03:27:04.391Z,5.18
2022-12-07T03:28:04.368Z,5.18
2022-12-07T03:29:04.336Z,5.18
2022-12-07T03:30:04.617Z,5.20
2022-12-07T03:31:04.398Z,5.22
2022-12-07T03:32:04.343Z,5.22
2022-12-07T03:33:04.286Z,5.23
2022-12-07T03:34:04.351Z,5.23
2022-12-07T03:35:04.264Z,5.26
2022-12-07T03:36:04.262Z,5.28
2022-12-07T03:37:04.285Z,5.29
2022-12-07T03:38:04.235Z,5.33
2022-12-07T03:39:04.217Z,5.34
2022-12-07T03:40:04.630Z,5.36
2022-12-07T03:41:04.188Z,5.38
2022-12-07T03:42:04.267Z,5.40
2022-12-07T03:43:04.181Z,5.38
2022-12-07T03:44:04.177Z,5.33
2022-12-07T03:45:04.150Z,5.36
2022-12-07T03:46:04.256Z,5.40
2022-12-07T03:47:04.159Z,5.41
2022-12-07T03:48:04.154Z,5.43
2022-12-07T03:49:04.105Z,5.43
2022-12-07T03:50:04.586Z,5.46
2022-12-07T03:51:04.078Z,5.49
2022-12-07T03:52:04.145Z,5.36
2022-12-07T03:53:04.104Z,5.15
2022-12-07T03:54:06.819Z,4.87
2022-12-07T03:55:04.064Z,4.66
2022-12-07T03:56:04.037Z,4.50
2022-12-07T03:57:04.081Z,4.45
2022-12-07T03:58:04.026Z,4.43
2022-12-07T03:59:04.006Z,4.43
2022-12-07T04:00:04.205Z,4.45
2022-12-07T04:01:04.026Z,4.46
2022-12-07T04:02:04.029Z,4.45
2022-12-07T04:03:04.135Z,4.42
2022-12-07T04:04:03.969Z,4.38
2022-12-07T04:05:03.938Z,4.34
2022-12-07T04:06:03.959Z,4.32
2022-12-07T04:07:03.969Z,4.34
2022-12-07T04:08:04.230Z,4.36
2022-12-07T04:09:03.881Z,4.38
2022-12-07T04:10:04.112Z,4.40
2022-12-07T04:11:03.895Z,4.40
2022-12-07T04:12:03.869Z,4.43
2022-12-07T04:13:03.847Z,4.48
2022-12-07T04:14:03.901Z,4.56
2022-12-07T04:15:03.806Z,4.60
2022-12-07T04:16:03.887Z,4.64
2022-12-07T04:17:03.793Z,4.66
2022-12-07T04:18:03.841Z,4.67
2022-12-07T04:19:03.798Z,4.67
2022-12-07T04:20:03.889Z,4.71
2022-12-07T04:21:03.755Z,4.74
2022-12-07T04:22:03.795Z,4.74
2022-12-07T04:23:03.764Z,4.74
2022-12-07T04:24:03.732Z,4.76
2022-12-07T04:25:03.720Z,4.83
2022-12-07T04:26:03.703Z,4.87
2022-12-07T04:27:03.695Z,4.92
2022-12-07T04:28:03.704Z,4.98
2022-12-07T04:29:07.595Z,5.01
2022-12-07T04:30:03.827Z,5.00
2022-12-07T04:31:03.725Z,5.01
2022-12-07T04:32:03.642Z,4.98
2022-12-07T04:33:03.614Z,4.95
2022-12-07T04:34:03.664Z,4.95
2022-12-07T04:35:03.592Z,4.94
2022-12-07T04:36:04.591Z,4.92
2022-12-07T04:37:03.623Z,4.90
2022-12-07T04:38:03.571Z,4.89
2022-12-07T04:39:03.587Z,4.84
2022-12-07T04:40:03.900Z,4.86
2022-12-07T04:41:03.526Z,4.89
2022-12-07T04:42:03.532Z,4.94
2022-12-07T04:43:03.497Z,4.97
2022-12-07T04:44:03.528Z,5.00
2022-12-07T04:45:03.472Z,5.08
2022-12-07T04:46:03.493Z,5.12
2022-12-07T04:47:03.517Z,5.19
2022-12-07T04:48:03.481Z,5.22
2022-12-07T04:49:03.440Z,5.26
2022-12-07T04:50:03.716Z,5.26
2022-12-07T04:51:03.405Z,5.25
2022-12-07T04:52:03.452Z,5.22
2022-12-07T04:53:03.417Z,5.22
2022-12-07T04:54:03.390Z,5.22
2022-12-07T04:55:03.416Z,5.23
2022-12-07T04:56:03.370Z,5.22
2022-12-07T04:57:03.329Z,5.22
2022-12-07T04:58:03.367Z,5.22
2022-12-07T04:59:03.345Z,5.23
2022-12-07T05:00:03.509Z,5.22
2022-12-07T05:01:03.426Z,5.23
2022-12-07T05:02:03.337Z,5.22
2022-12-07T05:03:03.274Z,5.22
2022-12-07T05:04:03.326Z,5.19
2022-12-07T05:05:03.247Z,5.19
2022-12-07T05:06:03.250Z,5.16
2022-12-07T05:07:03.246Z,5.16
2022-12-07T05:08:03.318Z,5.19
2022-12-07T05:09:03.243Z,5.22
2022-12-07T05:10:03.480Z,5.23
2022-12-07T05:11:03.180Z,5.26
2022-12-07T05:12:03.213Z,5.31
2022-12-07T05:13:03.178Z,5.33
2022-12-07T05:14:03.988Z,5.34
2022-12-07T05:15:03.168Z,5.34
2022-12-07T05:16:03.229Z,5.33
2022-12-07T05:17:03.140Z,5.29
2022-12-07T05:18:03.109Z,5.25
2022-12-07T05:19:03.118Z,5.22
2022-12-07T05:20:03.449Z,5.19
2022-12-07T05:21:03.068Z,5.18
2022-12-07T05:22:03.087Z,5.18
2022-12-07T05:23:03.307Z,5.16
2022-12-07T05:24:03.048Z,5.16
2022-12-07T05:25:03.031Z,5.19
2022-12-07T05:26:03.057Z,5.25
2022-12-07T05:27:03.012Z,5.26
2022-12-07T05:28:03.022Z,5.26
2022-12-07T05:29:02.987Z,5.28
2022-12-07T05:30:03.225Z,5.34
2022-12-07T05:31:03.010Z,5.37
2022-12-07T05:32:03.021Z,5.38
2022-12-07T05:33:02.938Z,5.41
2022-12-07T05:34:02.943Z,5.41
2022-12-07T05:35:02.919Z,5.43
2022-12-07T05:36:02.929Z,5.49
2022-12-07T05:37:02.930Z,5.51
2022-12-07T05:38:02.890Z,5.51
2022-12-07T05:39:02.876Z,5.46
2022-12-07T05:40:03.101Z,5.47
2022-12-07T05:41:02.851Z,5.47
2022-12-07T05:42:02.848Z,5.49
2022-12-07T05:43:04.977Z,5.49
2022-12-07T05:44:02.837Z,5.47
2022-12-07T05:45:02.800Z,5.46
2022-12-07T05:46:02.852Z,5.41
2022-12-07T05:47:02.779Z,5.40
2022-12-07T05:48:02.806Z,5.38
2022-12-07T05:49:02.776Z,5.37
2022-12-07T05:50:03.108Z,5.40
2022-12-07T05:51:02.755Z,5.41
2022-12-07T05:52:02.770Z,5.41
2022-12-07T05:53:03.856Z,5.40
2022-12-07T05:54:02.777Z,5.38
2022-12-07T05:55:02.718Z,5.38
2022-12-07T05:56:02.770Z,5.36
2022-12-07T05:57:02.687Z,5.34
2022-12-07T05:58:02.687Z,5.33
2022-12-07T05:59:02.671Z,5.31
2022-12-07T06:00:03.034Z,5.34
2022-12-07T06:01:02.658Z,5.33
2022-12-07T06:02:03.216Z,5.31
2022-12-07T06:03:02.732Z,5.31
2022-12-07T06:04:02.623Z,5.31
2022-12-07T06:05:02.583Z,5.29
2022-12-07T06:06:02.639Z,5.29
2022-12-07T06:07:02.804Z,5.28
2022-12-07T06:08:05.941Z,5.26
2022-12-07T06:09:02.558Z,5.28
2022-12-07T06:10:04.507Z,5.25
2022-12-07T06:12:19.629Z,5.20
2022-12-07T06:13:20.204Z,5.20
2022-12-07T06:14:20.167Z,5.20
2022-12-07T06:15:20.147Z,5.18
2022-12-07T06:16:20.320Z,5.19
2022-12-07T06:17:20.138Z,5.18
2022-12-07T06:18:20.127Z,5.19
2022-12-07T06:19:20.103Z,5.20
2022-12-07T06:20:20.161Z,5.22
2022-12-07T06:21:20.092Z,5.22
2022-12-07T06:22:20.088Z,5.26
2022-12-07T06:23:20.096Z,5.29
2022-12-07T06:24:20.062Z,5.31
2022-12-07T06:25:20.084Z,5.33
2022-12-07T06:26:20.092Z,5.34
2022-12-07T06:27:20.041Z,5.37
2022-12-07T06:28:20.233Z,5.38
2022-12-07T06:29:27.912Z,5.38
2022-12-07T06:30:26.831Z,5.40
2022-12-07T06:31:26.133Z,5.41
2022-12-07T06:32:20.035Z,5.40
2022-12-07T06:33:19.985Z,5.41
2022-12-07T06:34:19.954Z,5.43
2022-12-07T06:35:19.981Z,5.43
2022-12-07T06:36:25.493Z,5.43
2022-12-07T06:37:19.935Z,5.43
2022-12-07T06:38:20.049Z,5.44
2022-12-07T06:39:19.903Z,5.47
2022-12-07T06:40:19.957Z,5.47
2022-12-07T06:41:19.986Z,5.47
2022-12-07T06:42:19.911Z,5.49
2022-12-07T06:43:19.952Z,5.51
2022-12-07T06:44:19.858Z,5.52
2022-12-07T06:45:19.830Z,5.51
2022-12-07T06:46:19.848Z,5.41
2022-12-07T06:48:21.645Z,5.23
2022-12-07T06:49:19.796Z,5.16
2022-12-07T06:50:19.765Z,5.07
2022-12-07T06:51:19.750Z,5.00
2022-12-07T06:52:19.748Z,4.94
2022-12-07T06:53:19.770Z,4.89
2022-12-07T06:54:19.723Z,4.82
2022-12-07T06:55:19.743Z,4.79
2022-12-07T06:56:19.780Z,4.75
2022-12-07T06:57:19.702Z,4.75
2022-12-07T06:58:19.725Z,4.74
2022-12-07T06:59:25.950Z,4.71
2022-12-07T07:00:22.168Z,4.70
2022-12-07T07:01:19.769Z,4.70
2022-12-07T07:02:19.731Z,4.74
2022-12-07T07:03:19.615Z,4.70
2022-12-07T07:04:19.621Z,4.70
2022-12-07T07:05:19.627Z,4.71
2022-12-07T07:06:19.651Z,4.71
2022-12-07T07:07:19.586Z,4.71
2022-12-07T07:08:22.240Z,4.71
2022-12-07T07:09:19.628Z,4.76
2022-12-07T07:10:19.575Z,4.82
2022-12-07T07:11:19.567Z,4.87
2022-12-07T07:12:19.533Z,4.90
2022-12-07T07:13:19.587Z,4.94
2022-12-07T07:14:19.510Z,4.98
2022-12-07T07:15:19.484Z,5.00
2022-12-07T07:16:19.558Z,5.01
2022-12-07T07:17:19.451Z,5.01
2022-12-07T07:18:19.458Z,4.92
2022-12-07T07:19:19.473Z,4.89
2022-12-07T07:20:19.441Z,4.83
2022-12-07T07:21:19.415Z,4.71
2022-12-07T07:22:19.420Z,4.66
2022-12-07T07:23:19.389Z,4.63
2022-12-07T07:24:19.399Z,4.63
2022-12-07T07:25:19.405Z,4.60
2022-12-07T07:26:23.070Z,4.58
2022-12-07T07:27:19.377Z,4.60
2022-12-07T07:28:19.350Z,4.58
2022-12-07T07:29:19.322Z,4.58
2022-12-07T07:30:19.339Z,4.58
2022-12-07T07:31:19.342Z,4.60
2022-12-07T07:32:19.343Z,4.60
2022-12-07T07:33:19.292Z,4.64
2022-12-07T07:34:19.283Z,4.75
2022-12-07T07:35:19.310Z,4.87
2022-12-07T07:36:19.327Z,4.98
2022-12-07T07:37:22.122Z,5.08
2022-12-07T07:38:19.287Z,5.16
2022-12-07T07:39:19.237Z,5.20
2022-12-07T07:40:19.231Z,5.23
2022-12-07T07:41:19.183Z,5.25
2022-12-07T07:42:19.293Z,5.29
2022-12-07T07:43:19.187Z,5.34
2022-12-07T07:44:19.149Z,5.40
2022-12-07T07:45:19.181Z,5.47
2022-12-07T07:46:19.262Z,5.55
2022-12-07T07:47:19.171Z,5.61
2022-12-07T07:48:19.119Z,5.62
2022-12-07T07:49:19.139Z,5.61
2022-12-07T07:50:19.159Z,5.58
2022-12-07T07:51:19.117Z,5.61
2022-12-07T07:52:19.099Z,5.62
2022-12-07T07:53:19.120Z,5.62
2022-12-07T07:54:19.048Z,5.64
2022-12-07T07:55:20.009Z,5.69
2022-12-07T07:56:19.063Z,5.69
2022-12-07T07:57:19.028Z,5.67
2022-12-07T07:58:19.065Z,5.69
2022-12-07T07:59:19.035Z,5.76
2022-12-07T08:00:19.002Z,5.84
2022-12-07T08:01:19.051Z,5.90
2022-12-07T08:02:18.984Z,5.92
2022-12-07T08:03:18.998Z,5.95
2022-12-07T08:04:19.075Z,5.97
2022-12-07T08:05:19.015Z,6.02
2022-12-07T08:06:18.965Z,6.09
2022-12-07T08:07:18.991Z,6.07
2022-12-07T08:08:18.974Z,6.07
2022-12-07T08:09:18.894Z,6.07
2022-12-07T08:10:18.880Z,6.07
2022-12-07T08:11:18.926Z,6.02
2022-12-07T08:12:18.880Z,6.05
2022-12-07T08:13:18.857Z,6.07
2022-12-07T08:14:18.828Z,6.06
2022-12-07T08:15:18.881Z,6.05
2022-12-07T08:16:18.850Z,6.10
2022-12-07T08:17:18.861Z,6.16
2022-12-07T08:18:18.801Z,6.17
2022-12-07T08:19:18.878Z,6.16
2022-12-07T08:20:18.789Z,6.13
2022-12-07T08:21:18.797Z,6.12
2022-12-07T08:22:18.765Z,6.09
2022-12-07T08:23:18.783Z,6.02
2022-12-07T08:24:18.792Z,5.99
2022-12-07T08:25:18.750Z,6.01
2022-12-07T08:26:18.760Z,5.99
2022-12-07T08:27:19.680Z,6.01
2022-12-07T08:28:18.803Z,6.01
2022-12-07T08:29:18.793Z,5.99
2022-12-07T08:30:18.676Z,5.99
2022-12-07T08:31:18.837Z,5.99
2022-12-07T08:32:18.630Z,6.01
2022-12-07T08:33:18.694Z,5.98
2022-12-07T08:34:18.614Z,5.99
2022-12-07T08:35:18.613Z,6.01
2022-12-07T08:36:18.605Z,6.06
2022-12-07T08:37:18.716Z,6.09
2022-12-07T08:38:19.723Z,6.15
2022-12-07T08:39:33.901Z,6.17
2022-12-07T08:40:18.620Z,6.20
2022-12-07T08:41:18.576Z,6.22
2022-12-07T08:42:18.578Z,6.25
2022-12-07T08:43:18.578Z,6.25
2022-12-07T08:44:18.547Z,6.26
2022-12-07T08:45:24.965Z,6.25
2022-12-07T08:46:18.603Z,6.25
2022-12-07T08:47:18.526Z,6.26
2022-12-07T08:48:18.520Z,6.29
2022-12-07T08:49:18.442Z,6.32
2022-12-07T08:50:18.440Z,6.31
2022-12-07T08:51:18.519Z,6.29
2022-12-07T08:52:18.400Z,6.29
2022-12-07T08:53:18.596Z,6.26
2022-12-07T08:54:18.506Z,6.29
2022-12-07T08:55:18.388Z,6.31
2022-12-07T08:56:18.403Z,6.32
2022-12-07T08:57:18.676Z,6.34
2022-12-07T08:58:18.362Z,6.38
2022-12-07T08:59:18.375Z,6.43
2022-12-07T09:00:18.311Z,6.47
2022-12-07T09:01:18.345Z,6.54
2022-12-07T09:02:18.346Z,6.62
2022-12-07T09:03:18.295Z,6.67
2022-12-07T09:04:18.282Z,6.65
2022-12-07T09:05:18.266Z,6.67
2022-12-07T09:06:18.492Z,6.64
2022-12-07T09:07:18.361Z,6.60
2022-12-07T09:08:18.317Z,6.60
2022-12-07T09:09:18.253Z,6.59
2022-12-07T09:10:18.207Z,6.56
2022-12-07T09:11:18.238Z,6.52
2022-12-07T09:12:18.215Z,6.52
2022-12-07T09:13:18.183Z,6.52
2022-12-07T09:14:18.220Z,6.49
2022-12-07T09:15:18.168Z,6.50
2022-12-07T09:16:18.219Z,6.49
2022-12-07T09:17:18.185Z,6.53
2022-12-07T09:18:18.695Z,6.53
2022-12-07T09:19:18.160Z,6.54
2022-12-07T09:20:20.136Z,6.56
2022-12-07T09:21:18.203Z,6.56
2022-12-07T09:22:18.159Z,6.56
2022-12-07T09:23:18.124Z,6.52
2022-12-07T09:24:18.162Z,6.52
2022-12-07T09:25:18.078Z,6.50
2022-12-07T09:26:18.075Z,6.50
2022-12-07T09:27:18.132Z,6.47
2022-12-07T09:28:18.036Z,6.49
2022-12-07T09:29:18.000Z,6.52
2022-12-07T09:30:18.017Z,6.53
2022-12-07T09:31:26.132Z,6.52
2022-12-07T09:32:18.025Z,6.50
2022-12-07T09:33:18.008Z,6.50
2022-12-07T09:34:18.102Z,6.52
2022-12-07T09:35:17.971Z,6.56
2022-12-07T09:36:17.920Z,6.57
2022-12-07T09:37:17.953Z,6.56
2022-12-07T09:38:17.888Z,6.59
2022-12-07T09:39:17.912Z,6.59
2022-12-07T09:40:17.911Z,6.60
2022-12-07T09:41:17.873Z,6.62
2022-12-07T09:42:18.001Z,6.64
2022-12-07T09:43:17.997Z,6.65
2022-12-07T09:44:17.868Z,6.70
2022-12-07T09:45:17.877Z,6.68
2022-12-07T09:46:17.993Z,6.70
2022-12-07T09:47:17.859Z,6.71
2022-12-07T09:48:17.809Z,6.75
2022-12-07T09:49:18.644Z,6.80
2022-12-07T09:50:17.819Z,6.85
2022-12-07T09:51:22.761Z,6.87
2022-12-07T09:52:17.927Z,6.86
2022-12-07T09:53:17.773Z,6.90
2022-12-07T09:54:17.727Z,6.90
2022-12-07T09:55:17.770Z,6.90
2022-12-07T09:56:17.686Z,6.90
2022-12-07T09:57:17.739Z,6.92
2022-12-07T09:58:17.756Z,6.93
2022-12-07T09:59:17.666Z,6.95
2022-12-07T10:00:18.671Z,6.96
2022-12-07T10:01:17.742Z,7.00
2022-12-07T10:02:17.687Z,7.00
2022-12-07T10:03:17.650Z,7.00
2022-12-07T10:04:17.727Z,7.03
2022-12-07T10:05:23.624Z,7.04
2022-12-07T10:06:17.580Z,7.04
2022-12-07T10:07:17.641Z,7.03
2022-12-07T10:08:17.688Z,7.05
2022-12-07T10:09:17.594Z,7.13
2022-12-07T10:10:17.527Z,7.15
2022-12-07T10:11:17.567Z,7.19
2022-12-07T10:12:17.509Z,7.22
2022-12-07T10:13:17.531Z,7.25
2022-12-07T10:14:17.547Z,7.28
2022-12-07T10:15:17.490Z,7.31
2022-12-07T10:16:18.158Z,7.36
2022-12-07T10:17:18.000Z,7.32
2022-12-07T10:18:17.434Z,7.32
2022-12-07T10:19:17.445Z,7.36
2022-12-07T10:20:17.478Z,7.36
2022-12-07T10:21:17.469Z,7.40
2022-12-07T10:22:17.435Z,7.40
2022-12-07T10:23:17.396Z,7.41
2022-12-07T10:24:17.366Z,7.43
2022-12-07T10:25:17.393Z,7.46
2022-12-07T10:26:17.374Z,7.47
2022-12-07T10:27:17.348Z,7.50
2022-12-07T10:28:17.377Z,7.50
2022-12-07T10:29:17.360Z,7.41
2022-12-07T10:30:17.323Z,7.28
2022-12-07T10:31:17.394Z,7.19
2022-12-07T10:32:17.350Z,7.10
2022-12-07T10:33:17.356Z,7.03
2022-12-07T10:34:17.298Z,6.95
2022-12-07T10:35:17.267Z,6.92
2022-12-07T10:36:17.266Z,6.90
2022-12-07T10:37:17.297Z,6.90
2022-12-07T10:38:17.294Z,6.89
2022-12-07T10:39:17.299Z,6.87
2022-12-07T10:40:17.210Z,6.93
2022-12-07T10:41:17.239Z,6.95
2022-12-07T10:42:17.226Z,6.95
2022-12-07T10:43:17.192Z,6.93
2022-12-07T10:44:17.223Z,6.92
2022-12-07T10:45:18.154Z,6.85
2022-12-07T10:46:17.344Z,6.89
2022-12-07T10:47:17.182Z,6.89
2022-12-07T10:48:17.164Z,6.89
2022-12-07T10:49:17.130Z,6.92
2022-12-07T10:50:17.100Z,6.95
2022-12-07T10:51:17.087Z,6.96
2022-12-07T10:52:17.101Z,7.03
2022-12-07T10:53:17.092Z,7.00
2022-12-07T10:54:17.110Z,6.95
2022-12-07T10:55:17.053Z,6.92
2022-12-07T10:56:17.014Z,6.89
2022-12-07T10:57:17.087Z,6.83
2022-12-07T10:58:16.999Z,6.74
2022-12-07T10:59:17.000Z,6.65
2022-12-07T11:00:16.993Z,6.50
2022-12-07T11:01:17.090Z,6.09
2022-12-07T11:02:22.148Z,5.49
2022-12-07T11:03:17.163Z,5.25
2022-12-07T11:04:17.031Z,5.10
2022-12-07T11:05:16.966Z,5.01
2022-12-07T11:06:16.979Z,4.89
2022-12-07T11:07:16.924Z,4.75
2022-12-07T11:08:16.981Z,4.68
2022-12-07T11:09:16.896Z,4.66
2022-12-07T11:10:16.870Z,4.61
2022-12-07T11:11:16.887Z,4.67
2022-12-07T11:12:16.851Z,4.76
2022-12-07T11:13:16.857Z,4.83
2022-12-07T11:14:16.844Z,4.90
2022-12-07T11:15:16.824Z,5.04
2022-12-07T11:16:16.869Z,5.12
2022-12-07T11:17:16.915Z,5.23
2022-12-07T11:18:17.663Z,5.31
2022-12-07T11:19:16.884Z,5.37
2022-12-07T11:20:16.824Z,5.40
2022-12-07T11:21:16.783Z,5.44
2022-12-07T11:22:16.834Z,5.49
2022-12-07T11:23:16.812Z,5.49
2022-12-07T11:24:16.866Z,5.52
2022-12-07T11:25:16.714Z,5.55
2022-12-07T11:26:17.147Z,5.58
2022-12-07T11:27:16.752Z,5.61
2022-12-07T11:28:16.731Z,5.65
2022-12-07T11:29:16.771Z,5.67
2022-12-07T11:30:17.903Z,5.69
2022-12-07T11:31:16.686Z,5.74
2022-12-07T11:32:16.779Z,5.76
2022-12-07T11:33:16.656Z,5.77
2022-12-07T11:34:16.639Z,5.80
2022-12-07T11:35:16.631Z,5.81
2022-12-07T11:36:16.842Z,5.84
2022-12-07T11:37:16.681Z,5.87
2022-12-07T11:38:16.589Z,5.88
2022-12-07T11:39:16.602Z,5.83
2022-12-07T11:40:16.682Z,5.73
2022-12-07T11:41:16.574Z,5.72
2022-12-07T11:42:16.639Z,5.58
2022-12-07T11:43:16.600Z,5.56
2022-12-07T11:44:16.777Z,5.55
2022-12-07T11:45:16.503Z,5.52
2022-12-07T11:46:16.941Z,5.49
2022-12-07T11:47:16.468Z,5.47
2022-12-07T11:48:16.483Z,5.51
2022-12-07T11:49:16.446Z,5.55
2022-12-07T11:50:16.682Z,5.56
2022-12-07T11:51:16.447Z,5.62
2022-12-07T11:52:16.423Z,5.64
2022-12-07T11:53:16.404Z,5.69
2022-12-07T11:54:16.430Z,5.74
2022-12-07T11:55:16.407Z,5.80
2022-12-07T11:56:16.397Z,5.81
2022-12-07T11:57:19.991Z,5.84
2022-12-07T11:58:16.585Z,5.87
2022-12-07T11:59:16.403Z,5.88
2022-12-07T12:00:16.473Z,5.92
2022-12-07T12:01:16.360Z,5.92
2022-12-07T12:02:16.427Z,5.97
2022-12-07T12:03:16.848Z,5.98
2022-12-07T12:04:16.425Z,6.01
2022-12-07T12:05:16.382Z,6.05
2022-12-07T12:06:16.427Z,6.09
2022-12-07T12:10:16.403Z,6.29
2022-12-07T12:11:18.123Z,6.31
2022-12-07T12:15:16.263Z,6.31
2022-12-07T12:16:16.244Z,6.32
2022-12-07T12:17:16.306Z,6.34
2022-12-07T12:18:16.225Z,6.34
2022-12-07T12:19:16.096Z,6.31
2022-12-07T12:20:16.094Z,6.31
2022-12-07T12:21:19.481Z,6.29
2022-12-07T12:22:16.103Z,6.29
2022-12-07T12:23:16.085Z,6.28
2022-12-07T12:24:16.119Z,6.31
2022-12-07T12:25:16.025Z,6.35
2022-12-07T12:26:16.079Z,6.35
2022-12-07T12:27:15.998Z,6.35
2022-12-07T12:28:16.034Z,6.34
2022-12-07T12:29:15.979Z,6.36
2022-12-07T12:30:15.977Z,6.36
2022-12-07T12:31:15.975Z,6.39
2022-12-07T12:32:16.130Z,6.38
2022-12-07T12:33:15.963Z,6.32
2022-12-07T12:34:15.947Z,6.29
2022-12-07T12:35:15.918Z,6.22
2022-12-07T12:36:16.001Z,6.20
2022-12-07T12:37:15.877Z,6.22
2022-12-07T12:38:15.987Z,6.20
2022-12-07T12:39:15.863Z,6.20
2022-12-07T12:40:15.912Z,6.20
2022-12-07T12:41:15.853Z,6.28
2022-12-07T12:42:15.844Z,6.29
2022-12-07T12:44:54.511Z,6.41
2022-12-07T12:45:55.498Z,6.47
2022-12-07T12:46:56.138Z,6.47
2022-12-07T12:47:55.423Z,6.49
2022-12-07T12:48:55.545Z,6.50
2022-12-07T12:49:55.438Z,6.50
2022-12-07T12:50:55.421Z,6.49
2022-12-07T12:51:55.466Z,6.50
2022-12-07T12:52:55.420Z,6.54
2022-12-07T12:53:55.411Z,6.56
2022-12-07T12:54:55.405Z,6.54
2022-12-07T12:55:55.396Z,6.56
2022-12-07T12:56:55.471Z,6.59
2022-12-07T12:57:56.207Z,6.59
2022-12-07T12:58:55.374Z,6.60
2022-12-07T12:59:55.430Z,6.62
2022-12-07T13:00:55.333Z,6.59
2022-12-07T13:01:55.388Z,6.59
2022-12-07T13:02:55.326Z,6.65
2022-12-07T13:03:55.324Z,6.68
2022-12-07T13:04:55.381Z,6.67
2022-12-07T13:05:55.343Z,6.67
2022-12-07T13:06:55.311Z,6.67
2022-12-07T13:07:55.288Z,6.68
2022-12-07T13:08:55.381Z,6.68
2022-12-07T13:09:55.287Z,6.68
2022-12-07T13:10:55.379Z,6.72
2022-12-07T13:11:55.230Z,6.77
2022-12-07T13:12:55.198Z,6.78
2022-12-07T13:13:55.220Z,6.83
2022-12-07T13:14:55.299Z,6.87
2022-12-07T13:15:55.175Z,6.85
2022-12-07T13:16:55.300Z,6.86
2022-12-07T13:17:55.141Z,6.90
2022-12-07T13:18:55.176Z,6.92
2022-12-07T13:19:55.258Z,6.95
2022-12-07T13:20:56.021Z,6.82
2022-12-07T13:21:55.154Z,6.82
2022-12-07T13:22:55.051Z,6.68
2022-12-07T13:23:55.015Z,6.65
2022-12-07T13:24:55.298Z,6.62
2022-12-07T13:25:55.120Z,6.93
2022-12-07T13:26:55.076Z,7.64
2022-12-07T13:27:55.142Z,8.14